createdAt,value
2023-02-14T00:01:10.861Z,14.00
2023-02-14T00:03:38.196Z,11.83
2023-02-14T00:06:11.356Z,11.87
2023-02-14T00:08:39.400Z,12.70
2023-02-14T00:11:08.458Z,13.30
2023-02-14T00:13:35.291Z,13.10
2023-02-14T00:16:03.332Z,14.83
2023-02-14T00:18:48.780Z,13.70
2023-02-14T00:21:15.516Z,15.60
2023-02-14T00:23:42.252Z,15.93
2023-02-14T00:26:15.019Z,17.67
2023-02-14T00:28:42.057Z,16.97
2023-02-14T00:31:09.359Z,17.53
2023-02-14T00:33:36.582Z,17.73
2023-02-14T00:36:06.771Z,15.40
2023-02-14T00:38:33.724Z,16.17
2023-02-14T00:41:00.795Z,16.70
2023-02-14T00:43:28.071Z,15.60
2023-02-14T00:45:54.996Z,18.33
2023-02-14T00:48:21.784Z,15.90
2023-02-14T00:50:48.496Z,17.23
2023-02-14T00:53:15.673Z,16.47
2023-02-14T00:55:46.434Z,17.40
2023-02-14T00:58:13.375Z,17.57
2023-02-14T01:00:40.442Z,16.80
2023-02-14T01:03:07.350Z,18.10
2023-02-14T01:05:37.526Z,17.43
2023-02-14T01:08:05.121Z,17.83
2023-02-14T01:10:32.248Z,20.03
2023-02-14T01:12:59.687Z,19.93
2023-02-14T01:15:26.429Z,19.17
2023-02-14T01:17:53.196Z,19.63
2023-02-14T01:20:22.099Z,18.67
2023-02-14T01:22:49.355Z,19.87
2023-02-14T01:25:16.095Z,20.73
2023-02-14T01:27:42.931Z,17.97
2023-02-14T01:30:10.820Z,18.47
2023-02-14T01:32:37.732Z,18.23
2023-02-14T01:35:04.822Z,22.40
2023-02-14T01:37:31.695Z,19.43
2023-02-14T01:39:59.052Z,22.10
2023-02-14T01:42:25.856Z,21.97
2023-02-14T01:45:05.705Z,19.67
2023-02-14T01:47:40.114Z,19.37
2023-02-14T01:50:22.404Z,17.37
2023-02-14T01:53:02.229Z,21.07
2023-02-14T01:55:34.696Z,21.53
2023-02-14T01:58:09.084Z,21.73
2023-02-14T02:00:56.894Z,20.03
2023-02-14T02:03:45.835Z,21.73
2023-02-14T02:06:37.381Z,20.10
2023-02-14T02:09:47.500Z,19.07
2023-02-14T02:12:14.667Z,19.53
2023-02-14T02:14:42.876Z,20.03
2023-02-14T02:17:52.822Z,23.73
2023-02-14T02:20:19.480Z,21.87
2023-02-14T02:23:37.670Z,21.23
2023-02-14T02:26:55.891Z,22.77
2023-02-14T02:30:18.702Z,22.73
2023-02-14T02:33:26.377Z,22.53
2023-02-14T02:36:23.292Z,23.13
2023-02-14T02:39:16.243Z,23.67
2023-02-14T02:42:33.826Z,24.27
2023-02-14T02:45:19.083Z,23.87
2023-02-14T02:48:18.155Z,25.23
2023-02-14T02:51:14.102Z,25.53
2023-02-14T02:53:54.194Z,24.40
2023-02-14T02:56:45.701Z,24.50
2023-02-14T02:59:33.028Z,27.73
2023-02-14T03:02:56.410Z,24.67
2023-02-14T03:05:24.169Z,25.23
2023-02-14T03:07:51.036Z,25.57
2023-02-14T03:10:24.700Z,23.90
2023-02-14T03:13:09.560Z,26.80
2023-02-14T03:16:01.421Z,23.93
2023-02-14T03:19:13.640Z,26.07
2023-02-14T03:21:54.390Z,24.43
2023-02-14T03:24:49.047Z,25.90
2023-02-14T03:27:32.649Z,26.53
2023-02-14T03:30:17.776Z,26.27
2023-02-14T03:33:08.452Z,26.00
2023-02-14T03:36:01.814Z,24.53
2023-02-14T03:38:36.251Z,23.63
2023-02-14T03:41:11.247Z,24.07
2023-02-14T03:44:02.724Z,23.50
2023-02-14T03:46:40.279Z,23.67
2023-02-14T03:49:14.385Z,22.53
2023-02-14T03:51:45.553Z,21.20
2023-02-14T03:54:13.891Z,20.60
2023-02-14T03:57:00.171Z,23.47
2023-02-14T03:59:29.217Z,22.33
2023-02-14T04:02:21.567Z,22.73
2023-02-14T04:04:52.748Z,21.23
2023-02-14T04:07:23.546Z,21.63
2023-02-14T04:09:50.880Z,22.83
2023-02-14T04:12:23.991Z,20.70
2023-02-14T04:14:59.355Z,20.87
2023-02-14T04:17:44.595Z,20.83
2023-02-14T04:20:11.697Z,19.37
2023-02-14T04:22:38.404Z,18.40
2023-02-14T04:25:05.514Z,21.03
2023-02-14T04:27:32.221Z,18.30
2023-02-14T04:29:58.989Z,20.37
2023-02-14T04:32:25.733Z,21.33
2023-02-14T04:34:52.596Z,21.73
2023-02-14T04:37:20.534Z,19.40
2023-02-14T04:39:47.519Z,18.93
2023-02-14T04:42:15.104Z,21.57
2023-02-14T04:44:42.201Z,21.70
2023-02-14T04:47:09.801Z,21.43
2023-02-14T04:49:36.886Z,20.57
2023-02-14T04:52:05.458Z,18.90
2023-02-14T04:54:33.418Z,18.47
2023-02-14T04:57:00.156Z,20.80
2023-02-14T04:59:26.982Z,19.63
2023-02-14T05:01:54.229Z,19.50
2023-02-14T05:04:21.421Z,20.80
2023-02-14T05:06:48.209Z,21.33
2023-02-14T05:09:14.997Z,22.93
2023-02-14T05:11:42.226Z,21.90
2023-02-14T05:14:09.472Z,19.43
2023-02-14T05:16:36.760Z,20.80
2023-02-14T05:19:03.592Z,21.37
2023-02-14T05:21:32.994Z,19.50
2023-02-14T05:24:00.948Z,20.67
2023-02-14T05:26:28.285Z,20.57
2023-02-14T05:28:55.230Z,22.00
2023-02-14T05:31:22.488Z,21.50
2023-02-14T05:33:49.302Z,19.00
2023-02-14T05:36:16.003Z,22.27
2023-02-14T05:38:42.760Z,21.70
2023-02-14T05:41:09.564Z,20.07
2023-02-14T05:43:36.376Z,20.43
2023-02-14T05:46:12.370Z,20.70
2023-02-14T05:48:39.198Z,23.23
2023-02-14T05:51:09.445Z,20.67
2023-02-14T05:53:37.134Z,20.63
2023-02-14T05:56:04.984Z,22.20
2023-02-14T05:58:32.165Z,22.17
2023-02-14T06:00:59.958Z,22.53
2023-02-14T06:03:27.371Z,23.03
2023-02-14T06:05:54.188Z,22.27
2023-02-14T06:08:20.907Z,23.07
2023-02-14T06:10:47.648Z,21.10
2023-02-14T06:13:14.624Z,25.63
2023-02-14T06:15:41.358Z,23.63
2023-02-14T06:18:08.129Z,23.97
2023-02-14T06:20:35.611Z,22.50
2023-02-14T06:23:02.686Z,22.10
2023-02-14T06:25:29.429Z,21.30
2023-02-14T06:27:58.208Z,22.23
2023-02-14T06:30:26.699Z,22.40
2023-02-14T06:32:54.312Z,23.90
2023-02-14T06:35:21.093Z,23.20
2023-02-14T06:37:48.010Z,22.57
2023-02-14T06:40:15.076Z,24.33
2023-02-14T06:42:42.092Z,21.77
2023-02-14T06:45:09.584Z,21.70
2023-02-14T06:47:36.384Z,20.43
2023-02-14T06:50:05.030Z,18.73
2023-02-14T06:52:33.344Z,20.93
2023-02-14T06:55:00.377Z,20.30
2023-02-14T06:57:27.485Z,21.17
2023-02-14T06:59:54.316Z,21.83
2023-02-14T07:02:23.550Z,22.63
2023-02-14T07:04:51.492Z,21.40
2023-02-14T07:07:18.237Z,21.47
2023-02-14T07:09:44.975Z,23.57
2023-02-14T07:12:11.720Z,23.87
2023-02-14T07:14:38.564Z,23.33
2023-02-14T07:17:05.389Z,26.17
2023-02-14T07:19:32.231Z,23.43
2023-02-14T07:21:59.003Z,23.17
2023-02-14T07:24:25.798Z,22.67
2023-02-14T07:26:52.502Z,22.13
2023-02-14T07:29:19.377Z,23.23
2023-02-14T07:31:46.279Z,24.63
2023-02-14T07:34:13.100Z,24.33
2023-02-14T07:36:39.909Z,21.93
2023-02-14T07:39:06.809Z,21.47
2023-02-14T07:41:33.531Z,23.73
2023-02-14T07:44:00.263Z,21.23
2023-02-14T07:46:27.203Z,24.63
2023-02-14T07:48:54.001Z,20.63
2023-02-14T07:51:20.773Z,23.23
2023-02-14T07:53:48.300Z,21.93
2023-02-14T07:56:15.097Z,22.03
2023-02-14T07:58:41.858Z,20.57
2023-02-14T08:01:08.632Z,21.47
2023-02-14T08:03:35.467Z,22.07
2023-02-14T08:06:02.233Z,21.47
2023-02-14T08:08:31.590Z,21.87
2023-02-14T08:10:59.569Z,21.53
2023-02-14T08:13:26.764Z,19.73
2023-02-14T08:16:06.227Z,19.17
2023-02-14T08:18:40.229Z,17.30
2023-02-14T08:21:10.586Z,19.27
2023-02-14T08:23:38.538Z,20.40
2023-02-14T08:26:05.868Z,21.63
2023-02-14T08:28:33.113Z,19.83
2023-02-14T08:31:01.011Z,19.13
2023-02-14T08:33:28.054Z,18.57
2023-02-14T08:35:54.916Z,19.90
2023-02-14T08:38:21.769Z,20.93
2023-02-14T08:40:48.555Z,20.20
2023-02-14T08:43:15.509Z,19.07
2023-02-14T08:45:42.376Z,19.53
2023-02-14T08:48:12.274Z,17.83
2023-02-14T08:50:40.145Z,20.13
2023-02-14T08:53:12.630Z,17.43
2023-02-14T08:55:40.230Z,17.00
2023-02-14T08:58:07.525Z,19.17
2023-02-14T09:00:34.871Z,18.57
2023-02-14T09:03:01.835Z,17.83
2023-02-14T09:05:28.888Z,18.13
2023-02-14T09:07:56.399Z,17.57
2023-02-14T09:10:24.524Z,15.10
2023-02-14T09:12:51.738Z,16.87
2023-02-14T09:15:18.751Z,16.37
2023-02-14T09:17:46.379Z,16.40
2023-02-14T09:20:15.462Z,18.63
2023-02-14T09:22:42.415Z,18.57
2023-02-14T09:25:09.409Z,16.87
2023-02-14T09:27:36.386Z,16.57
2023-02-14T09:30:05.649Z,15.53
2023-02-14T09:32:32.936Z,16.03
2023-02-14T09:35:18.315Z,16.30
2023-02-14T09:37:45.046Z,16.17
2023-02-14T09:40:19.241Z,15.00
2023-02-14T09:42:54.688Z,15.40
2023-02-14T09:45:26.226Z,13.73
2023-02-14T09:48:00.382Z,14.47
2023-02-14T09:50:48.360Z,16.47
2023-02-14T09:53:34.832Z,14.83
2023-02-14T09:56:14.803Z,15.63
2023-02-14T09:59:17.846Z,14.30
2023-02-14T10:02:31.382Z,14.20
2023-02-14T10:05:13.182Z,15.67
2023-02-14T10:08:00.122Z,14.53
2023-02-14T10:10:43.540Z,13.20
2023-02-14T10:13:31.573Z,13.10
2023-02-14T10:16:27.411Z,12.70
2023-02-14T10:19:11.857Z,14.87
2023-02-14T10:21:47.119Z,14.87
2023-02-14T10:24:24.759Z,14.13
2023-02-14T10:26:58.263Z,14.50
2023-02-14T10:29:25.098Z,13.30
2023-02-14T10:32:01.641Z,14.00
2023-02-14T10:34:51.162Z,13.77
2023-02-14T10:37:36.380Z,12.07
2023-02-14T10:40:31.284Z,14.83
2023-02-14T10:43:32.188Z,15.80
2023-02-14T10:46:38.232Z,13.97
2023-02-14T10:49:29.292Z,14.43
2023-02-14T10:52:13.530Z,11.97
2023-02-14T10:54:45.695Z,14.17
2023-02-14T10:57:31.016Z,14.77
2023-02-14T11:00:16.770Z,13.97
2023-02-14T11:02:46.841Z,13.03
2023-02-14T11:05:43.716Z,12.47
2023-02-14T11:08:40.224Z,12.60
2023-02-14T11:11:35.383Z,12.50
2023-02-14T11:14:25.286Z,14.17
2023-02-14T11:16:54.151Z,13.80
2023-02-14T11:19:37.189Z,13.60
2023-02-14T11:22:04.766Z,13.83
2023-02-14T11:24:42.148Z,13.20
2023-02-14T11:27:11.674Z,13.27
2023-02-14T11:29:41.086Z,12.03
2023-02-14T11:32:22.549Z,10.93
2023-02-14T11:35:04.450Z,11.57
2023-02-14T11:37:42.157Z,12.90
2023-02-14T11:40:30.471Z,11.63
2023-02-14T11:43:18.977Z,10.50
2023-02-14T11:45:49.015Z,10.97
2023-02-14T11:48:36.532Z,12.57
2023-02-14T11:51:15.938Z,11.03
2023-02-14T11:53:55.755Z,10.73
2023-02-14T11:56:24.157Z,9.77
2023-02-14T11:59:03.609Z,10.30
2023-02-14T12:01:38.466Z,12.07
2023-02-14T12:04:15.344Z,11.10
2023-02-14T12:06:44.330Z,11.17
2023-02-14T12:09:31.741Z,11.43
2023-02-14T12:12:15.455Z,10.80
2023-02-14T12:14:42.464Z,10.57
2023-02-14T12:17:12.468Z,9.23
2023-02-14T12:19:54.509Z,9.00
2023-02-14T12:22:28.507Z,8.97
2023-02-14T12:25:21.321Z,13.43
2023-02-14T12:27:58.218Z,11.30
2023-02-14T12:30:30.301Z,13.10
2023-02-14T12:32:57.747Z,10.43
2023-02-14T12:36:14.483Z,10.97
2023-02-14T12:39:05.746Z,12.00
2023-02-14T12:42:06.760Z,10.73
2023-02-14T12:45:03.643Z,12.13
2023-02-14T12:48:15.204Z,11.87
2023-02-14T12:51:10.424Z,11.43
2023-02-14T12:54:09.068Z,12.30
2023-02-14T12:57:08.065Z,12.27
2023-02-14T13:00:12.543Z,12.07
2023-02-14T13:03:15.957Z,11.60
2023-02-14T13:06:32.189Z,12.10
2023-02-14T13:09:10.663Z,10.53
2023-02-14T13:11:55.885Z,10.67
2023-02-14T13:14:52.433Z,11.07
2023-02-14T13:17:40.504Z,10.50
2023-02-14T13:20:32.147Z,12.43
2023-02-14T13:23:06.193Z,11.67
2023-02-14T13:25:42.627Z,10.77
2023-02-14T13:28:13.982Z,10.33
2023-02-14T13:30:42.966Z,10.23
2023-02-14T13:33:36.378Z,11.17
2023-02-14T13:36:13.599Z,10.10
2023-02-14T13:38:50.052Z,9.50
2023-02-14T13:41:19.581Z,9.27
2023-02-14T13:43:56.475Z,10.33
2023-02-14T13:46:32.440Z,11.17
2023-02-14T13:49:25.007Z,11.40
2023-02-14T13:51:59.526Z,10.33
2023-02-14T13:54:46.938Z,12.03
2023-02-14T13:57:28.355Z,12.07
2023-02-14T14:00:19.485Z,11.10
2023-02-14T14:02:50.160Z,11.37
2023-02-14T14:05:42.663Z,11.53
2023-02-14T14:08:21.298Z,11.77
2023-02-14T14:11:02.325Z,13.03
2023-02-14T14:13:41.288Z,12.73
2023-02-14T14:16:34.991Z,12.57
2023-02-14T14:19:09.010Z,12.53
2023-02-14T14:21:40.984Z,12.37
2023-02-14T14:24:34.293Z,12.37
2023-02-14T14:27:21.702Z,12.20
2023-02-14T14:30:01.740Z,9.93
2023-02-14T14:32:36.100Z,12.17
2023-02-14T14:35:11.312Z,11.70
2023-02-14T14:37:54.416Z,10.27
2023-02-14T14:40:33.562Z,10.40
2023-02-14T14:43:14.364Z,10.60
2023-02-14T14:45:45.452Z,8.30
2023-02-14T14:48:21.980Z,9.83
2023-02-14T14:50:50.268Z,8.40
2023-02-14T14:53:28.260Z,9.23
2023-02-14T14:55:56.570Z,6.67
2023-02-14T14:58:41.779Z,7.17
2023-02-14T15:01:15.921Z,8.17
2023-02-14T15:03:42.693Z,8.07
2023-02-14T15:06:21.428Z,7.67
2023-02-14T15:08:49.870Z,6.83
2023-02-14T15:11:43.488Z,9.40
2023-02-14T15:14:24.253Z,9.77
2023-02-14T15:17:06.315Z,8.70
2023-02-14T15:19:48.590Z,9.20
2023-02-14T15:22:29.697Z,9.83
2023-02-14T15:24:58.479Z,10.10
2023-02-14T15:27:28.249Z,9.90
2023-02-14T15:30:09.668Z,9.67
2023-02-14T15:32:38.152Z,8.43
2023-02-14T15:35:07.066Z,10.50
2023-02-14T15:37:34.456Z,7.60
2023-02-14T15:40:02.761Z,8.87
2023-02-14T15:42:40.128Z,8.50
2023-02-14T15:45:28.752Z,8.73
2023-02-14T15:48:11.840Z,9.47
2023-02-14T15:50:50.896Z,8.63
2023-02-14T15:53:38.769Z,9.23
2023-02-14T15:56:25.986Z,9.80
2023-02-14T15:59:12.330Z,11.77
2023-02-14T16:01:39.616Z,10.63
2023-02-14T16:04:08.492Z,9.57
2023-02-14T16:06:46.797Z,8.30
2023-02-14T16:09:28.520Z,8.63
2023-02-14T16:11:55.462Z,7.67
2023-02-14T16:14:36.524Z,9.30
2023-02-14T16:17:06.766Z,9.60
2023-02-14T16:19:41.423Z,10.27
2023-02-14T16:22:26.204Z,9.83
2023-02-14T16:24:52.923Z,9.67
2023-02-14T16:27:19.641Z,9.97
2023-02-14T16:29:46.410Z,9.87
2023-02-14T16:32:22.330Z,9.50
2023-02-14T16:34:50.039Z,9.73
2023-02-14T16:37:30.120Z,9.47
2023-02-14T16:39:57.727Z,9.33
2023-02-14T16:42:25.391Z,9.50
2023-02-14T16:44:52.541Z,9.73
2023-02-14T16:47:21.421Z,9.37
2023-02-14T16:49:48.615Z,8.83
2023-02-14T16:52:23.464Z,8.10
2023-02-14T16:54:50.524Z,8.70
2023-02-14T16:57:36.720Z,8.47
2023-02-14T17:00:06.429Z,8.13
2023-02-14T17:02:37.024Z,7.47
2023-02-14T17:05:04.179Z,8.13
2023-02-14T17:07:33.243Z,8.00
2023-02-14T17:10:09.604Z,8.30
2023-02-14T17:12:43.947Z,8.97
2023-02-14T17:15:17.934Z,7.80
2023-02-14T17:17:48.716Z,8.97
2023-02-14T17:20:16.005Z,9.50
2023-02-14T17:22:42.737Z,10.60
2023-02-14T17:25:09.533Z,9.43
2023-02-14T17:27:36.773Z,9.73
2023-02-14T17:30:05.209Z,10.67
2023-02-14T17:32:31.941Z,9.73
2023-02-14T17:34:58.730Z,10.37
2023-02-14T17:37:25.555Z,10.07
2023-02-14T17:39:53.183Z,11.47
2023-02-14T17:42:19.893Z,13.67
2023-02-14T17:44:46.655Z,13.80
2023-02-14T17:47:15.710Z,14.13
2023-02-14T17:49:42.481Z,12.90
2023-02-14T17:52:09.250Z,15.47
2023-02-14T17:54:39.410Z,15.10
2023-02-14T17:57:06.178Z,12.87
2023-02-14T17:59:33.810Z,15.17
2023-02-14T18:02:00.979Z,14.93
2023-02-14T18:04:30.113Z,16.27
2023-02-14T18:06:56.892Z,15.30
2023-02-14T18:09:25.630Z,14.33
2023-02-14T18:11:52.363Z,16.98
2023-02-14T18:14:19.492Z,17.53
2023-02-14T18:16:46.249Z,15.50
2023-02-14T18:19:15.849Z,16.43
2023-02-14T18:21:44.754Z,14.63
2023-02-14T18:24:12.549Z,16.70
2023-02-14T18:26:41.398Z,15.40
2023-02-14T18:29:09.184Z,14.90
2023-02-14T18:31:38.824Z,17.23
2023-02-14T18:34:06.265Z,16.33
2023-02-14T18:36:36.050Z,14.83
2023-02-14T18:39:03.972Z,15.20
2023-02-14T18:41:31.285Z,17.20
2023-02-14T18:43:58.637Z,16.10
2023-02-14T18:46:33.052Z,17.33
2023-02-14T18:49:00.058Z,17.53
2023-02-14T18:51:31.190Z,16.00
2023-02-14T18:54:00.641Z,16.30
2023-02-14T18:56:32.197Z,15.83
2023-02-14T18:59:03.196Z,17.17
2023-02-14T19:01:36.638Z,17.53
2023-02-14T19:04:07.339Z,15.80
2023-02-14T19:06:35.547Z,16.27
2023-02-14T19:09:03.987Z,17.20
2023-02-14T19:11:33.731Z,16.30
2023-02-14T19:14:02.654Z,14.73
2023-02-14T19:16:33.646Z,18.80
2023-02-14T19:19:02.402Z,17.10
2023-02-14T19:21:33.873Z,16.07
2023-02-14T19:24:03.325Z,16.53
2023-02-14T19:26:34.896Z,17.50
2023-02-14T19:29:06.667Z,17.90
2023-02-14T19:31:42.760Z,17.50
2023-02-14T19:34:20.982Z,18.77
2023-02-14T19:36:51.550Z,18.70
2023-02-14T19:39:20.299Z,18.63
2023-02-14T19:41:47.773Z,19.43
2023-02-14T19:44:16.879Z,18.40
2023-02-14T19:46:46.379Z,18.37
2023-02-14T19:49:16.883Z,20.47
2023-02-14T19:51:45.269Z,19.50
2023-02-14T19:54:12.932Z,19.33
2023-02-14T19:56:43.929Z,17.47
2023-02-14T19:59:15.293Z,20.13
2023-02-14T20:01:46.352Z,20.03
2023-02-14T20:04:18.193Z,18.80
2023-02-14T20:06:46.300Z,17.93
2023-02-14T20:09:14.365Z,17.67
2023-02-14T20:11:51.104Z,17.90
2023-02-14T20:14:25.347Z,17.67
2023-02-14T20:16:54.521Z,18.20
2023-02-14T20:19:29.371Z,19.33
2023-02-14T20:21:56.450Z,20.10
2023-02-14T20:24:28.727Z,20.60
2023-02-14T20:26:55.861Z,17.73
2023-02-14T20:29:24.952Z,18.83
2023-02-14T20:31:55.230Z,17.23
2023-02-14T20:34:22.015Z,19.33
2023-02-14T20:36:53.072Z,18.03
2023-02-14T20:39:23.560Z,17.97
2023-02-14T20:41:50.379Z,15.80
2023-02-14T20:44:21.156Z,17.63
2023-02-14T20:46:51.577Z,15.87
2023-02-14T20:49:20.143Z,15.37
2023-02-14T20:51:49.595Z,18.47
2023-02-14T20:54:22.774Z,16.90
2023-02-14T20:56:50.713Z,18.67
2023-02-14T20:59:19.316Z,18.17
2023-02-14T21:01:46.196Z,18.23
2023-02-14T21:04:13.880Z,18.23
2023-02-14T21:06:40.664Z,18.00
2023-02-14T21:09:07.477Z,16.97
2023-02-14T21:11:34.357Z,15.23
2023-02-14T21:14:02.504Z,15.33
2023-02-14T21:16:30.248Z,15.27
2023-02-14T21:18:59.557Z,15.77
2023-02-14T21:21:34.774Z,16.03
2023-02-14T21:24:06.652Z,14.50
2023-02-14T21:26:33.689Z,13.83
2023-02-14T21:29:01.633Z,14.23
2023-02-14T21:31:28.574Z,13.70
2023-02-14T21:33:58.905Z,12.93
2023-02-14T21:36:29.279Z,13.23
2023-02-14T21:38:58.349Z,12.83
2023-02-14T21:41:28.877Z,13.03
2023-02-14T21:43:59.119Z,13.13
2023-02-14T21:46:31.045Z,13.13
2023-02-14T21:49:19.702Z,12.70
2023-02-14T21:51:47.672Z,12.63
2023-02-14T21:54:15.452Z,13.67
2023-02-14T21:56:42.995Z,13.37
2023-02-14T21:59:10.488Z,14.00
2023-02-14T22:01:41.214Z,14.13
2023-02-14T22:04:11.169Z,12.70
2023-02-14T22:06:42.743Z,11.87
2023-02-14T22:09:13.058Z,13.40
2023-02-14T22:11:40.844Z,12.67
2023-02-14T22:14:07.619Z,13.40
2023-02-14T22:16:36.690Z,12.43
2023-02-14T22:19:07.666Z,11.20
2023-02-14T22:21:34.899Z,12.27
2023-02-14T22:24:01.998Z,12.17
2023-02-14T22:26:42.971Z,10.70
2023-02-14T22:29:12.547Z,12.23
2023-02-14T22:31:42.965Z,9.97
2023-02-14T22:34:13.874Z,11.60
2023-02-14T22:36:40.890Z,11.87
2023-02-14T22:39:07.844Z,11.23
2023-02-14T22:41:38.302Z,12.07
2023-02-14T22:44:06.007Z,12.23
2023-02-14T22:46:34.014Z,11.60
2023-02-14T22:49:00.717Z,12.70
2023-02-14T22:51:37.560Z,12.03
2023-02-14T22:54:08.405Z,12.73
2023-02-14T22:56:47.651Z,11.97
2023-02-14T22:59:23.088Z,11.50
2023-02-14T23:01:51.869Z,11.17
2023-02-14T23:04:21.679Z,12.00
2023-02-14T23:06:48.793Z,12.17
2023-02-14T23:09:15.984Z,10.30
2023-02-14T23:11:44.946Z,11.43
2023-02-14T23:14:35.633Z,12.57
2023-02-14T23:17:15.967Z,12.60
2023-02-14T23:20:02.040Z,12.60
2023-02-14T23:22:35.910Z,12.27
2023-02-14T23:25:10.280Z,12.30
2023-02-14T23:27:44.590Z,12.30
2023-02-14T23:30:18.875Z,11.57
2023-02-14T23:32:46.043Z,13.17
2023-02-14T23:35:12.812Z,11.63
2023-02-14T23:37:40.039Z,10.80
2023-02-14T23:40:07.817Z,10.53
2023-02-14T23:42:34.611Z,11.77
2023-02-14T23:45:21.380Z,10.60
2023-02-14T23:47:48.158Z,11.27
2023-02-14T23:50:15.457Z,10.23
2023-02-14T23:52:42.325Z,10.57
2023-02-14T23:55:09.127Z,10.57
2023-02-14T23:57:36.154Z,12.63
